createdAt,value
2017-09-09T00:00:14.890Z,0
2017-09-09T00:01:15.464Z,0
2017-09-09T00:02:16.038Z,0
2017-09-09T00:03:16.614Z,0
2017-09-09T00:04:17.188Z,0
2017-09-09T00:05:17.762Z,0
2017-09-09T00:06:18.336Z,0
2017-09-09T00:07:18.908Z,0
2017-09-09T00:08:19.482Z,0
2017-09-09T00:09:20.056Z,0
2017-09-09T00:10:20.631Z,0
2017-09-09T00:11:21.216Z,0
2017-09-09T00:12:21.801Z,0
2017-09-09T00:13:22.376Z,0
2017-09-09T00:14:22.949Z,0
2017-09-09T00:15:23.525Z,0
2017-09-09T00:16:24.099Z,0
2017-09-09T00:17:24.673Z,0
2017-09-09T00:18:25.246Z,0
2017-09-09T00:19:25.834Z,0
2017-09-09T00:20:26.415Z,0
2017-09-09T00:21:26.987Z,0
2017-09-09T00:22:27.560Z,0
2017-09-09T00:23:28.134Z,0
2017-09-09T00:24:28.708Z,0
2017-09-09T00:25:29.282Z,0
2017-09-09T00:26:29.855Z,0
2017-09-09T00:27:30.428Z,0
2017-09-09T00:28:31.004Z,0
2017-09-09T00:29:31.578Z,0
2017-09-09T00:30:32.152Z,0
2017-09-09T00:31:32.728Z,0
2017-09-09T00:32:33.301Z,0
2017-09-09T00:33:33.874Z,0
2017-09-09T00:34:34.446Z,0
2017-09-09T00:35:35.022Z,0
2017-09-09T00:36:35.594Z,0
2017-09-09T00:37:36.168Z,0
2017-09-09T00:38:36.740Z,0
2017-09-09T00:39:37.313Z,0
2017-09-09T00:40:37.887Z,0
2017-09-09T00:41:38.460Z,0
2017-09-09T00:42:39.033Z,0
2017-09-09T00:43:39.607Z,0
2017-09-09T00:44:40.183Z,0
2017-09-09T00:45:40.758Z,0
2017-09-09T00:46:41.333Z,0
2017-09-09T00:47:41.906Z,0
2017-09-09T00:48:42.481Z,0
2017-09-09T00:49:43.055Z,0
2017-09-09T00:50:43.626Z,0
2017-09-09T00:51:44.201Z,0
2017-09-09T00:52:44.773Z,0
2017-09-09T00:53:45.346Z,0
2017-09-09T00:54:45.919Z,0
2017-09-09T00:55:46.493Z,0
2017-09-09T00:56:47.065Z,0
2017-09-09T00:57:47.650Z,0
2017-09-09T00:58:48.223Z,0
2017-09-09T00:59:48.798Z,0
2017-09-09T01:00:49.371Z,0
2017-09-09T01:01:49.945Z,0
2017-09-09T01:02:50.518Z,0
2017-09-09T01:03:51.092Z,0
2017-09-09T01:04:51.664Z,0
2017-09-09T01:05:52.240Z,0
2017-09-09T01:06:52.815Z,0
2017-09-09T01:07:53.390Z,0
2017-09-09T01:08:53.965Z,0
2017-09-09T01:09:54.538Z,0
2017-09-09T01:10:55.113Z,0
2017-09-09T01:11:55.686Z,0
2017-09-09T01:12:56.260Z,0
2017-09-09T01:13:56.833Z,0
2017-09-09T01:14:57.406Z,0
2017-09-09T01:15:57.980Z,0
2017-09-09T01:16:58.553Z,0
2017-09-09T01:17:59.126Z,0
2017-09-09T01:18:59.698Z,0
2017-09-09T01:20:00.272Z,0
2017-09-09T01:21:00.845Z,0
2017-09-09T01:22:01.422Z,0
2017-09-09T01:23:01.995Z,0
2017-09-09T01:24:02.570Z,0
2017-09-09T01:25:03.144Z,0
2017-09-09T01:26:03.719Z,0
2017-09-09T01:27:04.292Z,0
2017-09-09T01:28:04.865Z,0
2017-09-09T01:29:05.449Z,0
2017-09-09T01:30:06.023Z,0
2017-09-09T01:31:06.606Z,0
2017-09-09T01:32:07.181Z,0
2017-09-09T01:33:07.753Z,0
2017-09-09T01:34:08.328Z,0
2017-09-09T01:35:08.902Z,0
2017-09-09T01:36:09.478Z,0
2017-09-09T01:37:10.051Z,0
2017-09-09T01:38:10.627Z,0
2017-09-09T01:39:11.200Z,0
2017-09-09T01:40:11.775Z,0
2017-09-09T01:41:12.348Z,0
2017-09-09T01:42:12.922Z,0
2017-09-09T01:43:13.495Z,0
2017-09-09T01:44:14.069Z,0
2017-09-09T01:45:14.641Z,0
2017-09-09T01:46:15.215Z,0
2017-09-09T01:47:15.790Z,0
2017-09-09T01:48:16.365Z,0
2017-09-09T01:49:16.940Z,0
2017-09-09T01:50:17.514Z,0
2017-09-09T01:51:18.088Z,0
2017-09-09T01:52:18.662Z,0
2017-09-09T01:53:19.235Z,0
2017-09-09T01:54:19.808Z,0
2017-09-09T01:55:20.383Z,0
2017-09-09T01:56:20.955Z,0
2017-09-09T01:57:21.528Z,0
2017-09-09T01:58:22.102Z,0
2017-09-09T01:59:22.676Z,0
2017-09-09T02:00:23.252Z,0
2017-09-09T02:01:23.827Z,0
2017-09-09T02:02:24.402Z,0
2017-09-09T02:03:24.974Z,0
2017-09-09T02:04:25.557Z,0
2017-09-09T02:05:26.133Z,0
2017-09-09T02:06:26.710Z,0
2017-09-09T02:07:27.282Z,0
2017-09-09T02:08:27.868Z,0
2017-09-09T02:09:28.441Z,0
2017-09-09T02:10:29.025Z,0
2017-09-09T02:11:29.599Z,0
2017-09-09T02:12:30.174Z,0
2017-09-09T02:13:30.745Z,0
2017-09-09T02:14:31.319Z,0
2017-09-09T02:15:31.894Z,0
2017-09-09T02:16:32.466Z,0
2017-09-09T02:17:33.050Z,0
2017-09-09T02:18:33.623Z,0
2017-09-09T02:19:34.198Z,0
2017-09-09T02:20:34.770Z,0
2017-09-09T02:21:35.375Z,0
2017-09-09T02:22:35.915Z,0
2017-09-09T02:23:36.488Z,0
2017-09-09T02:24:37.061Z,0
2017-09-09T02:25:37.634Z,0
2017-09-09T02:26:38.208Z,0
2017-09-09T02:27:38.783Z,0
2017-09-09T02:28:39.359Z,0
2017-09-09T02:29:39.932Z,0
2017-09-09T02:30:40.507Z,0
2017-09-09T02:31:41.092Z,0
2017-09-09T02:32:41.677Z,0
2017-09-09T02:33:42.241Z,0
2017-09-09T02:34:42.815Z,0
2017-09-09T02:35:43.390Z,0
2017-09-09T02:36:43.963Z,0
2017-09-09T02:37:44.538Z,0
2017-09-09T02:38:45.107Z,0
2017-09-09T02:39:45.681Z,0
2017-09-09T02:40:46.254Z,0
2017-09-09T02:41:46.840Z,0
2017-09-09T02:42:47.415Z,0
2017-09-09T02:43:47.988Z,0
2017-09-09T02:44:48.563Z,0
2017-09-09T02:45:49.139Z,0
2017-09-09T02:46:49.706Z,0
2017-09-09T02:47:50.278Z,0
2017-09-09T02:48:50.852Z,0
2017-09-09T02:49:51.424Z,0
2017-09-09T02:50:51.998Z,0
2017-09-09T02:51:52.571Z,0
2017-09-09T02:52:53.148Z,0
2017-09-09T02:53:53.728Z,0
2017-09-09T02:54:54.302Z,0
2017-09-09T02:55:54.876Z,0
2017-09-09T02:56:55.447Z,0
2017-09-09T02:57:56.021Z,0
2017-09-09T02:58:56.597Z,0
2017-09-09T02:59:57.168Z,0
2017-09-09T03:00:57.751Z,0
2017-09-09T03:01:58.323Z,0
2017-09-09T03:02:58.898Z,0
2017-09-09T03:03:59.470Z,0
2017-09-09T03:05:00.044Z,0
2017-09-09T03:06:00.616Z,0
2017-09-09T03:07:01.189Z,0
2017-09-09T03:08:01.769Z,0
2017-09-09T03:09:02.334Z,0
2017-09-09T03:10:02.909Z,0
2017-09-09T03:11:03.487Z,0
2017-09-09T03:12:04.055Z,0
2017-09-09T03:13:04.629Z,0
2017-09-09T03:14:05.205Z,0
2017-09-09T03:15:05.789Z,0
2017-09-09T03:16:06.361Z,0
2017-09-09T03:17:06.935Z,0
2017-09-09T03:18:07.509Z,0
2017-09-09T03:19:08.084Z,0
2017-09-09T03:20:08.657Z,0
2017-09-09T03:21:09.232Z,0
2017-09-09T03:22:09.804Z,0
2017-09-09T03:23:10.378Z,0
2017-09-09T03:24:10.952Z,0
2017-09-09T03:25:11.528Z,0
2017-09-09T03:26:12.110Z,0
2017-09-09T03:27:12.684Z,0
2017-09-09T03:28:13.258Z,0
2017-09-09T03:29:13.833Z,0
2017-09-09T03:30:14.407Z,0
2017-09-09T03:31:14.981Z,0
2017-09-09T03:32:15.552Z,0
2017-09-09T03:33:16.126Z,0
2017-09-09T03:34:16.700Z,0
2017-09-09T03:35:17.272Z,0
2017-09-09T03:36:17.845Z,0
2017-09-09T03:37:18.419Z,0
2017-09-09T03:38:18.993Z,0
2017-09-09T03:39:19.569Z,0
2017-09-09T03:40:20.142Z,0
2017-09-09T03:41:20.717Z,0
2017-09-09T03:42:21.302Z,0
2017-09-09T03:43:21.876Z,0
2017-09-09T03:44:22.450Z,0
2017-09-09T03:45:23.023Z,0
2017-09-09T03:46:23.597Z,0
2017-09-09T03:47:24.170Z,0
2017-09-09T03:48:24.745Z,0
2017-09-09T03:49:25.318Z,0
2017-09-09T03:50:25.890Z,0
2017-09-09T03:51:26.463Z,0
2017-09-09T03:52:27.036Z,0
2017-09-09T03:53:27.610Z,0
2017-09-09T03:54:28.184Z,0
2017-09-09T03:55:28.759Z,0
2017-09-09T03:56:29.343Z,0
2017-09-09T03:57:29.926Z,0
2017-09-09T03:58:30.501Z,0
2017-09-09T03:59:31.074Z,0
2017-09-09T04:00:31.648Z,0
2017-09-09T04:01:32.221Z,0
2017-09-09T04:02:32.795Z,0
2017-09-09T04:03:33.367Z,0
2017-09-09T04:04:33.940Z,0
2017-09-09T04:05:34.516Z,0
2017-09-09T04:06:35.091Z,0
2017-09-09T04:07:35.661Z,0
2017-09-09T04:08:36.235Z,0
2017-09-09T04:09:36.809Z,0
2017-09-09T04:10:37.414Z,0
2017-09-09T04:11:37.956Z,0
2017-09-09T04:12:38.529Z,0
2017-09-09T04:13:39.103Z,0
2017-09-09T04:14:39.674Z,0
2017-09-09T04:15:40.247Z,0
2017-09-09T04:16:40.820Z,0
2017-09-09T04:17:41.393Z,0
2017-09-09T04:18:41.965Z,0
2017-09-09T04:19:42.538Z,0
2017-09-09T04:20:43.112Z,0
2017-09-09T04:21:43.684Z,0
2017-09-09T04:22:44.271Z,0
2017-09-09T04:23:44.833Z,0
2017-09-09T04:24:45.449Z,0
2017-09-09T04:25:45.991Z,0
2017-09-09T04:26:46.574Z,0
2017-09-09T04:27:47.154Z,0
2017-09-09T04:28:47.720Z,0
2017-09-09T04:29:48.303Z,0
2017-09-09T04:30:48.866Z,0
2017-09-09T04:31:49.440Z,0
2017-09-09T04:32:50.013Z,0
2017-09-09T04:33:50.596Z,0
2017-09-09T04:34:51.172Z,0
2017-09-09T04:35:51.756Z,0
2017-09-09T04:36:52.339Z,0
2017-09-09T04:37:52.912Z,0
2017-09-09T04:38:53.484Z,0
2017-09-09T04:39:54.058Z,0
2017-09-09T04:40:54.643Z,0
2017-09-09T04:41:55.215Z,0
2017-09-09T04:42:55.788Z,0
2017-09-09T04:43:56.359Z,0
2017-09-09T04:44:56.942Z,0
2017-09-09T04:45:57.517Z,0
2017-09-09T04:46:58.099Z,0
2017-09-09T04:47:58.683Z,0
2017-09-09T04:48:59.258Z,4
2017-09-09T04:49:59.842Z,4
2017-09-09T04:51:00.416Z,4
2017-09-09T04:52:00.993Z,0
2017-09-09T04:53:01.566Z,0
2017-09-09T04:54:02.141Z,4
2017-09-09T04:55:02.715Z,4
2017-09-09T04:56:03.299Z,4
2017-09-09T04:57:03.881Z,4
2017-09-09T04:58:04.454Z,4
2017-09-09T04:59:05.028Z,4
2017-09-09T05:00:05.599Z,4
2017-09-09T05:01:06.175Z,8
2017-09-09T05:02:06.756Z,4
2017-09-09T05:03:07.328Z,8
2017-09-09T05:04:07.905Z,8
2017-09-09T05:05:08.478Z,4
2017-09-09T05:06:09.050Z,8
2017-09-09T05:07:09.623Z,8
2017-09-09T05:08:10.206Z,8
2017-09-09T05:09:10.781Z,8
2017-09-09T05:10:11.356Z,8
2017-09-09T05:11:11.940Z,12
2017-09-09T05:12:12.523Z,12
2017-09-09T05:13:13.097Z,12
2017-09-09T05:14:13.671Z,12
2017-09-09T05:15:14.247Z,12
2017-09-09T05:16:14.821Z,16
2017-09-09T05:17:15.408Z,16
2017-09-09T05:18:15.983Z,16
2017-09-09T05:19:16.557Z,16
2017-09-09T05:20:17.140Z,16
2017-09-09T05:21:17.713Z,20
2017-09-09T05:22:18.288Z,20
2017-09-09T05:23:18.862Z,24
2017-09-09T05:24:19.437Z,28
2017-09-09T05:25:20.014Z,28
2017-09-09T05:26:20.597Z,32
2017-09-09T05:27:21.183Z,32
2017-09-09T05:28:21.756Z,32
2017-09-09T05:29:22.331Z,32
2017-09-09T05:30:22.905Z,32
2017-09-09T05:31:23.481Z,32
2017-09-09T05:32:24.055Z,32
2017-09-09T05:33:24.630Z,36
2017-09-09T05:34:25.206Z,40
2017-09-09T05:35:25.778Z,40
2017-09-09T05:36:26.351Z,44
2017-09-09T05:37:26.925Z,44
2017-09-09T05:38:27.501Z,48
2017-09-09T05:39:28.077Z,48
2017-09-09T05:40:28.660Z,56
2017-09-09T05:41:29.236Z,56
2017-09-09T05:42:29.810Z,56
2017-09-09T05:43:30.385Z,48
2017-09-09T05:44:30.972Z,44
2017-09-09T05:45:31.557Z,40
2017-09-09T05:46:32.137Z,40
2017-09-09T05:47:32.708Z,40
2017-09-09T05:48:33.283Z,36
2017-09-09T05:49:33.857Z,36
2017-09-09T05:50:34.431Z,36
2017-09-09T05:51:35.004Z,36
2017-09-09T05:52:35.577Z,40
2017-09-09T05:53:36.149Z,44
2017-09-09T05:54:36.723Z,48
2017-09-09T05:55:37.299Z,52
2017-09-09T05:56:37.877Z,56
2017-09-09T05:57:38.454Z,60
2017-09-09T05:58:39.023Z,64
2017-09-09T05:59:39.596Z,68
2017-09-09T06:00:40.169Z,68
2017-09-09T06:01:40.754Z,68
2017-09-09T06:02:41.327Z,72
2017-09-09T06:03:41.901Z,64
2017-09-09T06:04:42.475Z,60
2017-09-09T06:05:43.048Z,60
2017-09-09T06:06:43.621Z,60
2017-09-09T06:07:44.196Z,60
2017-09-09T06:08:44.772Z,56
2017-09-09T06:09:45.348Z,60
2017-09-09T06:10:45.923Z,56
2017-09-09T06:11:46.496Z,56
2017-09-09T06:12:47.071Z,48
2017-09-09T06:13:47.645Z,44
2017-09-09T06:14:48.230Z,40
2017-09-09T06:15:48.805Z,36
2017-09-09T06:16:49.378Z,36
2017-09-09T06:17:49.955Z,40
2017-09-09T06:18:50.526Z,44
2017-09-09T06:19:51.099Z,52
2017-09-09T06:20:51.684Z,56
2017-09-09T06:21:52.256Z,52
2017-09-09T06:22:52.830Z,52
2017-09-09T06:23:53.404Z,56
2017-09-09T06:24:53.979Z,56
2017-09-09T06:25:54.555Z,56
2017-09-09T06:26:55.128Z,56
2017-09-09T06:27:55.703Z,52
2017-09-09T06:28:56.276Z,52
2017-09-09T06:29:56.851Z,52
2017-09-09T06:30:57.425Z,48
2017-09-09T06:31:58.000Z,48
2017-09-09T06:32:58.576Z,48
2017-09-09T06:33:59.150Z,48
2017-09-09T06:34:59.725Z,52
2017-09-09T06:36:00.297Z,52
2017-09-09T06:37:00.872Z,56
2017-09-09T06:38:01.445Z,60
2017-09-09T06:39:02.021Z,60
2017-09-09T06:40:02.596Z,56
2017-09-09T06:41:03.169Z,48
2017-09-09T06:42:03.745Z,48
2017-09-09T06:43:04.317Z,48
2017-09-09T06:44:04.890Z,56
2017-09-09T06:45:05.464Z,64
2017-09-09T06:46:06.036Z,76
2017-09-09T06:47:06.609Z,80
2017-09-09T06:48:07.184Z,92
2017-09-09T06:49:07.770Z,100
2017-09-09T06:50:08.344Z,104
2017-09-09T06:51:08.918Z,112
2017-09-09T06:52:09.494Z,112
2017-09-09T06:53:10.070Z,120
2017-09-09T06:54:10.647Z,120
2017-09-09T06:55:11.220Z,116
2017-09-09T06:56:11.795Z,108
2017-09-09T06:57:12.372Z,108
2017-09-09T06:58:12.947Z,100
2017-09-09T06:59:13.525Z,100
2017-09-09T07:00:14.098Z,88
2017-09-09T07:01:14.670Z,96
2017-09-09T07:02:15.245Z,108
2017-09-09T07:03:15.819Z,112
2017-09-09T07:04:16.396Z,116
2017-09-09T07:05:16.971Z,132
2017-09-09T07:06:17.547Z,140
2017-09-09T07:07:18.121Z,128
2017-09-09T07:08:18.695Z,120
2017-09-09T07:09:19.272Z,108
2017-09-09T07:10:19.847Z,108
2017-09-09T07:11:20.423Z,120
2017-09-09T07:12:21.001Z,136
2017-09-09T07:13:21.573Z,136
2017-09-09T07:14:22.147Z,124
2017-09-09T07:15:22.724Z,140
2017-09-09T07:16:23.301Z,140
2017-09-09T07:17:23.887Z,132
2017-09-09T07:18:24.473Z,148
2017-09-09T07:19:25.048Z,160
2017-09-09T07:20:25.625Z,168
2017-09-09T07:21:26.208Z,156
2017-09-09T07:22:26.785Z,144
2017-09-09T07:23:27.361Z,160
2017-09-09T07:24:27.937Z,176
2017-09-09T07:25:28.522Z,192
2017-09-09T07:26:29.099Z,200
2017-09-09T07:27:29.673Z,200
2017-09-09T07:28:30.260Z,192
2017-09-09T07:29:30.837Z,184
2017-09-09T07:30:31.412Z,176
2017-09-09T07:31:31.989Z,176
2017-09-09T07:32:32.563Z,176
2017-09-09T07:33:33.138Z,176
2017-09-09T07:34:33.716Z,188
2017-09-09T07:35:34.291Z,172
2017-09-09T07:36:34.866Z,172
2017-09-09T07:37:35.452Z,184
2017-09-09T07:38:36.029Z,188
2017-09-09T07:39:36.612Z,176
2017-09-09T07:40:37.191Z,192
2017-09-09T07:41:37.764Z,188
2017-09-09T07:42:38.340Z,172
2017-09-09T07:43:38.914Z,160
2017-09-09T07:44:39.488Z,156
2017-09-09T07:45:40.076Z,164
2017-09-09T07:46:40.651Z,168
2017-09-09T07:47:41.227Z,176
2017-09-09T07:48:41.804Z,184
2017-09-09T07:49:42.379Z,192
2017-09-09T07:50:42.956Z,192
2017-09-09T07:51:43.531Z,208
2017-09-09T07:52:44.107Z,232
2017-09-09T07:53:44.694Z,264
2017-09-09T07:54:45.283Z,264
2017-09-09T07:55:45.858Z,256
2017-09-09T07:56:46.435Z,220
2017-09-09T07:57:47.028Z,200
2017-09-09T07:58:47.596Z,200
2017-09-09T07:59:48.171Z,200
2017-09-09T08:00:48.747Z,208
2017-09-09T08:01:49.324Z,232
2017-09-09T08:02:49.902Z,224
2017-09-09T08:03:50.476Z,216
2017-09-09T08:04:51.051Z,224
2017-09-09T08:05:51.628Z,284
2017-09-09T08:06:52.206Z,268
2017-09-09T08:07:52.786Z,284
2017-09-09T08:08:53.361Z,324
2017-09-09T08:09:53.938Z,356
2017-09-09T08:10:54.516Z,392
2017-09-09T08:11:55.091Z,360
2017-09-09T08:12:55.671Z,340
2017-09-09T08:13:56.245Z,328
2017-09-09T08:14:56.824Z,376
2017-09-09T08:15:57.402Z,456
2017-09-09T08:16:57.978Z,584
2017-09-09T08:17:58.552Z,628
2017-09-09T08:18:59.130Z,620
2017-09-09T08:19:59.707Z,676
2017-09-09T08:21:00.285Z,716
2017-09-09T08:22:00.861Z,576
2017-09-09T08:23:01.439Z,484
2017-09-09T08:24:02.017Z,404
2017-09-09T08:25:02.594Z,392
2017-09-09T08:26:03.173Z,384
2017-09-09T08:27:03.757Z,324
2017-09-09T08:28:04.329Z,296
2017-09-09T08:29:04.918Z,296
2017-09-09T08:30:05.498Z,292
2017-09-09T08:31:06.073Z,284
2017-09-09T08:32:06.659Z,240
2017-09-09T08:33:07.227Z,224
2017-09-09T08:34:07.803Z,212
2017-09-09T08:35:08.382Z,228
2017-09-09T08:36:08.958Z,188
2017-09-09T08:37:09.535Z,172
2017-09-09T08:38:10.109Z,196
2017-09-09T08:39:10.685Z,224
2017-09-09T08:40:11.264Z,220
2017-09-09T08:41:11.838Z,208
2017-09-09T08:42:12.416Z,220
2017-09-09T08:43:12.992Z,240
2017-09-09T08:44:13.580Z,240
2017-09-09T08:45:14.157Z,244
2017-09-09T08:46:14.734Z,260
2017-09-09T08:47:15.312Z,232
2017-09-09T08:48:15.890Z,188
2017-09-09T08:49:16.468Z,240
2017-09-09T08:50:17.043Z,352
2017-09-09T08:51:17.624Z,432
2017-09-09T08:52:18.200Z,440
2017-09-09T08:53:18.789Z,432
2017-09-09T08:54:19.366Z,400
2017-09-09T08:55:19.956Z,484
2017-09-09T08:56:20.534Z,480
2017-09-09T08:57:21.123Z,432
2017-09-09T08:58:21.702Z,364
2017-09-09T08:59:22.277Z,332
2017-09-09T09:00:22.860Z,352
2017-09-09T09:01:23.434Z,244
2017-09-09T09:02:24.007Z,204
2017-09-09T09:03:24.586Z,268
2017-09-09T09:04:25.162Z,252
2017-09-09T09:05:25.739Z,260
2017-09-09T09:06:26.320Z,320
2017-09-09T09:07:26.894Z,372
2017-09-09T09:08:27.472Z,348
2017-09-09T09:09:28.050Z,344
2017-09-09T09:10:28.626Z,436
2017-09-09T09:11:29.204Z,408
2017-09-09T09:12:29.791Z,340
2017-09-09T09:13:30.369Z,296
2017-09-09T09:14:30.947Z,232
2017-09-09T09:15:31.522Z,212
2017-09-09T09:16:32.102Z,204
2017-09-09T09:17:32.676Z,236
2017-09-09T09:18:33.253Z,352
2017-09-09T09:19:33.830Z,456
2017-09-09T09:20:34.412Z,480
2017-09-09T09:21:34.994Z,492
2017-09-09T09:22:35.571Z,508
2017-09-09T09:23:36.159Z,540
2017-09-09T09:24:36.736Z,564
2017-09-09T09:25:37.313Z,480
2017-09-09T09:26:37.892Z,320
2017-09-09T09:27:38.480Z,308
2017-09-09T09:28:39.057Z,308
2017-09-09T09:29:39.635Z,324
2017-09-09T09:30:40.211Z,256
2017-09-09T09:31:40.789Z,228
2017-09-09T09:32:41.364Z,200
2017-09-09T09:33:41.941Z,212
2017-09-09T09:34:42.518Z,216
2017-09-09T09:35:43.094Z,212
2017-09-09T09:36:43.670Z,180
2017-09-09T09:37:44.247Z,168
2017-09-09T09:38:44.822Z,152
2017-09-09T09:39:45.400Z,148
2017-09-09T09:40:45.974Z,156
2017-09-09T09:41:46.550Z,184
2017-09-09T09:42:47.124Z,168
2017-09-09T09:43:47.699Z,148
2017-09-09T09:44:48.288Z,132
2017-09-09T09:45:48.877Z,220
2017-09-09T09:46:49.452Z,308
2017-09-09T09:47:50.028Z,348
2017-09-09T09:48:50.605Z,384
2017-09-09T09:49:51.180Z,428
2017-09-09T09:50:51.759Z,464
2017-09-09T09:51:52.337Z,464
2017-09-09T09:52:52.912Z,440
2017-09-09T09:53:53.491Z,420
2017-09-09T09:54:54.068Z,680
2017-09-09T09:55:54.645Z,680
2017-09-09T09:56:55.223Z,688
2017-09-09T09:57:55.799Z,716
2017-09-09T09:58:56.376Z,736
2017-09-09T09:59:56.953Z,764
2017-09-09T10:00:57.529Z,788
2017-09-09T10:01:58.105Z,724
2017-09-09T10:02:58.682Z,840
2017-09-09T10:03:59.261Z,912
2017-09-09T10:04:59.838Z,908
2017-09-09T10:06:00.430Z,932
2017-09-09T10:07:01.003Z,920
2017-09-09T10:08:01.580Z,876
2017-09-09T10:09:02.157Z,756
2017-09-09T10:10:02.735Z,744
2017-09-09T10:11:03.312Z,420
2017-09-09T10:12:03.889Z,396
2017-09-09T10:13:04.465Z,368
2017-09-09T10:14:05.043Z,464
2017-09-09T10:15:05.622Z,304
2017-09-09T10:16:06.200Z,496
2017-09-09T10:17:06.776Z,268
2017-09-09T10:18:07.355Z,264
2017-09-09T10:19:07.932Z,296
2017-09-09T10:20:08.521Z,348
2017-09-09T10:21:09.100Z,372
2017-09-09T10:22:09.676Z,380
2017-09-09T10:23:10.253Z,404
2017-09-09T10:24:10.832Z,420
2017-09-09T10:25:11.421Z,428
2017-09-09T10:26:12.009Z,428
2017-09-09T10:27:12.584Z,456
2017-09-09T10:28:13.159Z,452
2017-09-09T10:29:13.737Z,428
2017-09-09T10:30:14.315Z,436
2017-09-09T10:31:14.891Z,512
2017-09-09T10:32:15.469Z,520
2017-09-09T10:33:16.046Z,572
2017-09-09T10:34:16.623Z,596
2017-09-09T10:35:17.202Z,584
2017-09-09T10:36:17.779Z,888
2017-09-09T10:37:18.367Z,980
2017-09-09T10:38:18.943Z,740
2017-09-09T10:39:19.521Z,728
2017-09-09T10:40:20.108Z,740
2017-09-09T10:41:20.677Z,660
2017-09-09T10:42:21.252Z,584
2017-09-09T10:43:21.830Z,528
2017-09-09T10:44:22.407Z,524
2017-09-09T10:45:22.984Z,816
2017-09-09T10:46:23.564Z,812
2017-09-09T10:47:24.139Z,800
2017-09-09T10:48:24.717Z,776
2017-09-09T10:49:25.295Z,764
2017-09-09T10:50:25.872Z,752
2017-09-09T10:51:26.450Z,760
2017-09-09T10:52:27.027Z,784
2017-09-09T10:53:27.605Z,788
2017-09-09T10:54:28.184Z,820
2017-09-09T10:55:28.770Z,812
2017-09-09T10:56:29.357Z,792
2017-09-09T10:57:29.927Z,836
2017-09-09T10:58:30.505Z,868
2017-09-09T10:59:31.082Z,908
2017-09-09T11:00:31.662Z,964
2017-09-09T11:01:32.239Z,624
2017-09-09T11:02:32.819Z,704
2017-09-09T11:03:33.395Z,644
2017-09-09T11:04:33.974Z,652
2017-09-09T11:05:34.554Z,684
2017-09-09T11:06:35.131Z,976
2017-09-09T11:07:35.709Z,816
2017-09-09T11:08:36.289Z,684
2017-09-09T11:09:36.868Z,684
2017-09-09T11:10:37.445Z,732
2017-09-09T11:11:38.023Z,760
2017-09-09T11:12:38.602Z,868
2017-09-09T11:13:39.182Z,1012
2017-09-09T11:14:39.759Z,680
2017-09-09T11:15:40.336Z,696
2017-09-09T11:16:40.926Z,672
2017-09-09T11:17:41.522Z,680
2017-09-09T11:18:42.092Z,704
2017-09-09T11:19:42.671Z,700
2017-09-09T11:20:43.248Z,688
2017-09-09T11:21:43.827Z,608
2017-09-09T11:22:44.406Z,604
2017-09-09T11:23:44.983Z,820
2017-09-09T11:24:45.560Z,768
2017-09-09T11:25:46.141Z,1116
2017-09-09T11:26:46.718Z,1136
2017-09-09T11:27:47.297Z,904
2017-09-09T11:28:47.887Z,1164
2017-09-09T11:29:48.466Z,1144
2017-09-09T11:30:49.045Z,1100
2017-09-09T11:31:49.626Z,1040
2017-09-09T11:32:50.215Z,996
2017-09-09T11:33:50.781Z,944
2017-09-09T11:34:51.360Z,920
2017-09-09T11:35:51.939Z,928
2017-09-09T11:36:52.518Z,976
2017-09-09T11:37:53.097Z,1056
2017-09-09T11:38:53.682Z,1016
2017-09-09T11:39:54.255Z,980
2017-09-09T11:40:54.834Z,1012
2017-09-09T11:41:55.411Z,960
2017-09-09T11:42:55.991Z,1012
2017-09-09T11:43:56.583Z,980
2017-09-09T11:44:57.170Z,964
2017-09-09T11:45:57.758Z,924
2017-09-09T11:46:58.339Z,872
2017-09-09T11:47:58.964Z,896
2017-09-09T11:48:59.521Z,900
2017-09-09T11:50:00.099Z,732
2017-09-09T11:51:00.679Z,724
2017-09-09T11:52:01.258Z,936
2017-09-09T11:53:01.835Z,956
2017-09-09T11:54:02.414Z,960
2017-09-09T11:55:03.001Z,984
2017-09-09T11:56:03.580Z,1012
2017-09-09T11:57:04.160Z,1036
2017-09-09T11:58:04.739Z,1040
2017-09-09T11:59:05.319Z,1060
2017-09-09T12:00:05.898Z,1100
2017-09-09T12:01:06.479Z,1088
2017-09-09T12:02:07.058Z,972
2017-09-09T12:03:07.637Z,828
2017-09-09T12:04:08.214Z,844
2017-09-09T12:05:08.794Z,740
2017-09-09T12:06:09.373Z,696
2017-09-09T12:07:09.954Z,1044
2017-09-09T12:08:10.532Z,752
2017-09-09T12:09:11.112Z,652
2017-09-09T12:10:11.692Z,640
2017-09-09T12:11:12.273Z,632
2017-09-09T12:12:12.852Z,632
2017-09-09T12:13:13.432Z,612
2017-09-09T12:14:14.012Z,604
2017-09-09T12:15:14.591Z,608
2017-09-09T12:16:15.169Z,596
2017-09-09T12:17:15.749Z,576
2017-09-09T12:18:16.330Z,640
2017-09-09T12:19:16.909Z,644
2017-09-09T12:20:17.500Z,620
2017-09-09T12:21:18.081Z,576
2017-09-09T12:22:18.672Z,556
2017-09-09T12:23:19.250Z,544
2017-09-09T12:24:19.827Z,624
2017-09-09T12:25:20.415Z,776
2017-09-09T12:26:20.988Z,604
2017-09-09T12:27:21.578Z,840
2017-09-09T12:28:22.157Z,844
2017-09-09T12:29:22.746Z,628
2017-09-09T12:30:23.317Z,524
2017-09-09T12:31:23.898Z,480
2017-09-09T12:32:24.478Z,508
2017-09-09T12:33:25.069Z,440
2017-09-09T12:34:25.656Z,424
2017-09-09T12:35:26.239Z,428
2017-09-09T12:36:26.833Z,388
2017-09-09T12:37:27.411Z,324
2017-09-09T12:38:27.991Z,280
2017-09-09T12:39:28.568Z,256
2017-09-09T12:40:29.148Z,244
2017-09-09T12:41:29.729Z,244
2017-09-09T12:42:30.307Z,248
2017-09-09T12:43:30.885Z,268
2017-09-09T12:44:31.463Z,288
2017-09-09T12:45:32.043Z,296
2017-09-09T12:46:32.622Z,296
2017-09-09T12:47:33.201Z,284
2017-09-09T12:48:33.791Z,284
2017-09-09T12:49:34.370Z,276
2017-09-09T12:50:34.959Z,264
2017-09-09T12:51:35.536Z,264
2017-09-09T12:52:36.115Z,268
2017-09-09T12:53:36.693Z,280
2017-09-09T12:54:37.272Z,288
2017-09-09T12:55:37.853Z,276
2017-09-09T12:56:38.430Z,264
2017-09-09T12:57:39.008Z,260
2017-09-09T12:58:39.588Z,264
2017-09-09T12:59:40.167Z,268
2017-09-09T13:00:40.747Z,268
2017-09-09T13:01:41.325Z,268
2017-09-09T13:02:41.903Z,264
2017-09-09T13:03:42.485Z,248
2017-09-09T13:04:43.062Z,244
2017-09-09T13:05:43.651Z,256
2017-09-09T13:06:44.232Z,284
2017-09-09T13:07:44.809Z,312
2017-09-09T13:08:45.387Z,316
2017-09-09T13:09:45.968Z,368
2017-09-09T13:10:46.545Z,456
2017-09-09T13:11:47.125Z,524
2017-09-09T13:12:47.702Z,556
2017-09-09T13:13:48.281Z,600
2017-09-09T13:14:48.859Z,648
2017-09-09T13:15:49.437Z,656
2017-09-09T13:16:50.015Z,628
2017-09-09T13:17:50.594Z,568
2017-09-09T13:18:51.172Z,468
2017-09-09T13:19:51.751Z,372
2017-09-09T13:20:52.329Z,308
2017-09-09T13:21:52.909Z,248
2017-09-09T13:22:53.482Z,228
2017-09-09T13:23:54.059Z,224
2017-09-09T13:24:54.638Z,220
2017-09-09T13:25:55.215Z,220
2017-09-09T13:26:55.791Z,220
2017-09-09T13:27:56.369Z,220
2017-09-09T13:28:56.946Z,208
2017-09-09T13:29:57.524Z,212
2017-09-09T13:30:58.101Z,220
2017-09-09T13:31:58.677Z,240
2017-09-09T13:32:59.268Z,260
2017-09-09T13:33:59.845Z,284
2017-09-09T13:35:00.423Z,312
2017-09-09T13:36:01.001Z,336
2017-09-09T13:37:01.580Z,368
2017-09-09T13:38:02.158Z,396
2017-09-09T13:39:02.734Z,428
2017-09-09T13:40:03.309Z,460
2017-09-09T13:41:03.890Z,488
2017-09-09T13:42:04.467Z,520
2017-09-09T13:43:05.044Z,568
2017-09-09T13:44:05.621Z,620
2017-09-09T13:45:06.198Z,684
2017-09-09T13:46:06.777Z,740
2017-09-09T13:47:07.356Z,788
2017-09-09T13:48:07.945Z,848
2017-09-09T13:49:08.524Z,912
2017-09-09T13:50:09.101Z,980
2017-09-09T13:51:09.677Z,1116
2017-09-09T13:52:10.258Z,1224
2017-09-09T13:53:10.836Z,1292
2017-09-09T13:54:11.414Z,1556
2017-09-09T13:55:11.992Z,1376
2017-09-09T13:56:12.571Z,1476
2017-09-09T13:57:13.152Z,1348
2017-09-09T13:58:13.731Z,1032
2017-09-09T13:59:14.309Z,988
2017-09-09T14:00:14.897Z,1136
2017-09-09T14:01:15.476Z,1076
2017-09-09T14:02:16.055Z,1148
2017-09-09T14:03:16.637Z,1092
2017-09-09T14:04:17.215Z,1124
2017-09-09T14:05:17.795Z,1164
2017-09-09T14:06:18.376Z,1220
2017-09-09T14:07:18.954Z,1032
2017-09-09T14:08:19.534Z,1136
2017-09-09T14:09:20.115Z,1300
2017-09-09T14:10:20.694Z,1076
2017-09-09T14:11:21.276Z,1068
2017-09-09T14:12:21.855Z,1024
2017-09-09T14:13:22.433Z,1368
2017-09-09T14:14:23.013Z,1296
2017-09-09T14:15:23.591Z,1220
2017-09-09T14:16:24.180Z,1160
2017-09-09T14:17:24.760Z,1408